createdAt,value
2023-01-27T00:00:20.099Z,84.46
2023-01-27T00:02:54.872Z,83.50
2023-01-27T00:05:30.667Z,83.48
2023-01-27T00:08:05.458Z,82.92
2023-01-27T00:10:40.139Z,84.78
2023-01-27T00:13:27.447Z,84.44
2023-01-27T00:16:01.704Z,84.79
2023-01-27T00:18:36.797Z,83.67
2023-01-27T00:21:29.799Z,82.85
2023-01-27T00:24:22.122Z,84.65
2023-01-27T00:26:56.514Z,82.97
2023-01-27T00:29:32.024Z,84.55
2023-01-27T00:32:25.155Z,84.29
2023-01-27T00:34:59.666Z,84.55
2023-01-27T00:37:35.346Z,83.56
2023-01-27T00:40:15.106Z,84.55
2023-01-27T00:42:49.626Z,83.13
2023-01-27T00:45:41.587Z,84.16
2023-01-27T00:48:17.121Z,84.60
2023-01-27T00:50:52.581Z,83.72
2023-01-27T00:53:28.252Z,82.45
2023-01-27T00:56:02.924Z,83.83
2023-01-27T00:58:37.517Z,83.46
2023-01-27T01:01:14.196Z,85.34
2023-01-27T01:03:49.119Z,82.62
2023-01-27T01:06:23.949Z,82.99
2023-01-27T01:08:59.956Z,83.14
2023-01-27T01:11:34.542Z,82.61
2023-01-27T01:14:08.918Z,81.89
2023-01-27T01:16:43.514Z,82.94
2023-01-27T01:19:17.744Z,82.77
2023-01-27T01:21:52.672Z,84.07
2023-01-27T01:24:28.457Z,83.90
2023-01-27T01:27:03.047Z,82.71
2023-01-27T01:29:38.555Z,81.32
2023-01-27T01:32:13.586Z,81.46
2023-01-27T01:34:47.931Z,81.32
2023-01-27T01:37:23.703Z,82.16
2023-01-27T01:39:59.468Z,83.44
2023-01-27T01:42:57.104Z,82.40
2023-01-27T01:45:56.681Z,81.46
2023-01-27T01:48:36.046Z,82.28
2023-01-27T01:51:14.732Z,83.00
2023-01-27T01:53:53.552Z,84.12
2023-01-27T01:56:33.539Z,81.74
2023-01-27T01:59:13.662Z,83.41
2023-01-27T02:01:48.863Z,83.86
2023-01-27T02:04:29.823Z,82.42
2023-01-27T02:07:09.014Z,82.02
2023-01-27T02:09:44.039Z,82.89
2023-01-27T02:12:19.991Z,83.50
2023-01-27T02:14:55.154Z,84.10
2023-01-27T02:17:30.174Z,83.63
2023-01-27T02:20:12.003Z,82.33
2023-01-27T02:22:53.211Z,82.74
2023-01-27T02:25:35.787Z,83.08
2023-01-27T02:28:11.445Z,83.53
2023-01-27T02:30:46.686Z,82.97
2023-01-27T02:33:21.329Z,84.56
2023-01-27T02:36:03.401Z,84.06
2023-01-27T02:38:42.569Z,84.01
2023-01-27T02:41:23.812Z,84.25
2023-01-27T02:44:00.172Z,83.59
2023-01-27T02:46:35.164Z,85.29
2023-01-27T02:49:09.639Z,84.94
2023-01-27T02:51:44.251Z,85.39
2023-01-27T02:54:18.670Z,85.65
2023-01-27T02:56:53.186Z,85.06
2023-01-27T02:59:30.622Z,85.70
2023-01-27T03:02:05.439Z,85.45
2023-01-27T03:04:39.999Z,85.34
2023-01-27T03:07:14.537Z,84.57
2023-01-27T03:09:48.870Z,85.78
2023-01-27T03:12:24.306Z,85.73
2023-01-27T03:15:17.528Z,85.54
2023-01-27T03:18:09.965Z,85.69
2023-01-27T03:20:47.216Z,85.23
2023-01-27T03:23:22.085Z,85.46
2023-01-27T03:25:56.629Z,84.42
2023-01-27T03:28:31.201Z,85.66
2023-01-27T03:31:09.485Z,84.65
2023-01-27T03:33:45.951Z,84.76
2023-01-27T03:36:39.343Z,83.19
2023-01-27T03:39:31.557Z,83.64
2023-01-27T03:42:23.488Z,83.84
2023-01-27T03:45:15.996Z,84.65
2023-01-27T03:47:53.056Z,84.49
2023-01-27T03:50:37.396Z,85.67
2023-01-27T03:53:12.697Z,84.45
2023-01-27T03:55:48.037Z,84.07
2023-01-27T03:58:25.700Z,84.71
2023-01-27T04:01:01.793Z,85.68
2023-01-27T04:03:55.505Z,85.81
2023-01-27T04:06:48.508Z,85.09
2023-01-27T04:09:24.812Z,85.96
2023-01-27T04:12:00.949Z,84.62
2023-01-27T04:14:38.248Z,84.82
2023-01-27T04:17:14.063Z,85.20
2023-01-27T04:19:50.541Z,85.16
2023-01-27T04:22:25.036Z,86.39
2023-01-27T04:24:59.618Z,86.58
2023-01-27T04:27:33.818Z,85.65
2023-01-27T04:30:10.544Z,86.26
2023-01-27T04:32:45.082Z,85.61
2023-01-27T04:35:23.339Z,85.69
2023-01-27T04:37:59.478Z,84.91
2023-01-27T04:40:34.011Z,84.29
2023-01-27T04:43:08.259Z,100.00
2023-01-27T04:45:43.096Z,100.00
2023-01-27T04:48:17.638Z,100.00
2023-01-27T04:50:53.700Z,98.98
2023-01-27T04:53:27.989Z,97.87
2023-01-27T04:56:04.521Z,95.97
2023-01-27T04:58:38.661Z,91.53
2023-01-27T05:01:13.340Z,93.59
2023-01-27T05:03:47.624Z,92.20
2023-01-27T05:06:24.376Z,90.27
2023-01-27T05:08:58.649Z,88.35
2023-01-27T05:11:33.177Z,87.85
2023-01-27T05:14:07.342Z,86.97
2023-01-27T05:16:42.047Z,87.70
2023-01-27T05:19:16.744Z,87.93
2023-01-27T05:21:52.685Z,87.11
2023-01-27T05:24:27.054Z,100.00
2023-01-27T05:27:01.642Z,100.00
2023-01-27T05:29:35.973Z,100.00
2023-01-27T05:32:10.429Z,100.00
2023-01-27T05:34:44.751Z,94.64
2023-01-27T05:37:20.853Z,89.18
2023-01-27T05:40:00.203Z,96.45
2023-01-27T05:42:35.080Z,100.00
2023-01-27T05:45:11.086Z,96.72
2023-01-27T05:47:49.414Z,91.49
2023-01-27T05:50:26.627Z,88.13
2023-01-27T05:53:02.507Z,86.89
2023-01-27T05:55:36.747Z,89.57
2023-01-27T05:58:11.478Z,88.15
2023-01-27T06:00:46.176Z,88.43
2023-01-27T06:03:21.098Z,87.52
2023-01-27T06:05:56.618Z,90.02
2023-01-27T06:08:32.826Z,88.71
2023-01-27T06:11:07.897Z,87.61
2023-01-27T06:13:42.962Z,88.27
2023-01-27T06:16:19.395Z,88.49
2023-01-27T06:18:53.928Z,88.84
2023-01-27T06:21:28.257Z,88.49
2023-01-27T06:24:04.532Z,88.61
2023-01-27T06:26:39.119Z,88.34
2023-01-27T06:29:13.761Z,89.90
2023-01-27T06:31:48.174Z,88.82
2023-01-27T06:34:23.232Z,88.86
2023-01-27T06:36:57.428Z,88.81
2023-01-27T06:39:33.502Z,88.25
2023-01-27T06:42:09.836Z,89.03
2023-01-27T06:44:44.465Z,89.44
2023-01-27T06:47:18.757Z,89.21
2023-01-27T06:49:53.356Z,89.01
2023-01-27T06:52:27.749Z,89.53
2023-01-27T06:55:03.941Z,89.56
2023-01-27T06:57:38.527Z,90.33
2023-01-27T07:03:05.870Z,86.92
2023-01-27T07:05:42.434Z,86.92
2023-01-27T07:08:16.752Z,89.53
2023-01-27T07:10:51.412Z,88.44
2023-01-27T07:13:25.748Z,87.89
2023-01-27T07:16:00.502Z,89.32
2023-01-27T07:18:36.125Z,88.19
2023-01-27T07:21:11.147Z,88.89
2023-01-27T07:23:45.480Z,88.23
2023-01-27T07:26:25.071Z,88.54
2023-01-27T07:28:59.751Z,87.64
2023-01-27T07:31:35.339Z,88.11
2023-01-27T07:34:11.047Z,88.79
2023-01-27T07:36:45.593Z,87.68
2023-01-27T07:39:19.928Z,88.42
2023-01-27T07:41:55.002Z,88.69
2023-01-27T07:44:29.315Z,88.15
2023-01-27T07:47:03.847Z,87.00
2023-01-27T07:49:39.554Z,87.10
2023-01-27T07:52:14.100Z,86.66
2023-01-27T07:54:48.373Z,86.46
2023-01-27T07:57:23.024Z,86.82
2023-01-27T07:59:57.506Z,87.01
2023-01-27T08:02:32.408Z,85.49
2023-01-27T08:05:09.186Z,86.56
2023-01-27T08:07:43.459Z,86.12
2023-01-27T08:10:19.070Z,85.00
2023-01-27T08:12:53.420Z,85.23
2023-01-27T08:15:27.955Z,84.30
2023-01-27T08:18:02.512Z,85.12
2023-01-27T08:20:38.494Z,85.27
2023-01-27T08:23:12.706Z,84.48
2023-01-27T08:25:51.040Z,84.19
2023-01-27T08:28:26.361Z,84.41
2023-01-27T08:31:06.108Z,84.02
2023-01-27T08:33:41.335Z,85.00
2023-01-27T08:36:18.748Z,84.05
2023-01-27T08:38:53.261Z,83.21
2023-01-27T08:41:28.794Z,83.89
2023-01-27T08:44:03.281Z,83.70
2023-01-27T08:46:37.844Z,83.18
2023-01-27T08:49:13.859Z,82.86
2023-01-27T08:51:49.813Z,83.19
2023-01-27T08:54:24.036Z,83.06
2023-01-27T08:56:58.798Z,82.82
2023-01-27T08:59:33.151Z,100.00
2023-01-27T09:02:08.111Z,100.00
2023-01-27T09:04:44.437Z,83.86
2023-01-27T09:07:20.593Z,83.31
2023-01-27T09:10:07.767Z,81.06
2023-01-27T09:12:48.138Z,80.76
2023-01-27T09:15:22.689Z,79.30
2023-01-27T09:17:57.432Z,79.13
2023-01-27T09:20:32.129Z,79.10
2023-01-27T09:23:08.087Z,80.64
2023-01-27T09:25:42.303Z,78.69
2023-01-27T09:28:18.116Z,100.00
2023-01-27T09:30:52.624Z,81.08
2023-01-27T09:33:27.837Z,79.67
2023-01-27T09:36:06.458Z,77.51
2023-01-27T09:38:48.645Z,76.77
2023-01-27T09:41:47.879Z,76.29
2023-01-27T09:44:52.225Z,76.78
2023-01-27T09:47:43.322Z,75.71
2023-01-27T09:50:32.090Z,77.85
2023-01-27T09:53:57.348Z,76.39
2023-01-27T09:56:44.869Z,76.91
2023-01-27T09:59:42.353Z,79.41
2023-01-27T10:02:35.746Z,80.76
2023-01-27T10:05:41.046Z,78.48
2023-01-27T10:08:36.208Z,77.07
2023-01-27T10:11:20.759Z,100.00
2023-01-27T10:14:08.493Z,95.33
2023-01-27T10:17:04.340Z,81.87
2023-01-27T10:19:55.127Z,75.88
2023-01-27T10:22:42.375Z,74.68
2023-01-27T10:25:26.721Z,75.70
2023-01-27T10:28:10.404Z,74.32
2023-01-27T10:30:52.444Z,75.27
2023-01-27T10:33:46.115Z,75.59
2023-01-27T10:36:28.075Z,76.91
2023-01-27T10:39:17.629Z,74.83
2023-01-27T10:41:58.582Z,73.80
2023-01-27T10:44:54.804Z,75.67
2023-01-27T10:47:41.883Z,75.41
2023-01-27T10:50:20.343Z,75.36
2023-01-27T10:53:00.639Z,76.13
2023-01-27T10:55:42.453Z,75.65
2023-01-27T10:58:25.330Z,77.87
2023-01-27T11:01:20.365Z,78.44
2023-01-27T11:04:00.286Z,77.64
2023-01-27T11:06:38.890Z,77.51
2023-01-27T11:09:25.207Z,79.46
2023-01-27T11:12:03.647Z,79.74
2023-01-27T11:14:46.387Z,80.03
2023-01-27T11:17:29.974Z,78.24
2023-01-27T11:20:13.929Z,79.34
2023-01-27T11:22:54.743Z,78.13
2023-01-27T11:25:35.721Z,79.72
2023-01-27T11:28:21.548Z,79.09
2023-01-27T11:31:06.130Z,79.93
2023-01-27T11:33:58.232Z,81.54
2023-01-27T11:36:32.734Z,81.31
2023-01-27T11:39:07.731Z,82.93
2023-01-27T11:41:47.666Z,83.04
2023-01-27T11:44:25.655Z,82.70
2023-01-27T11:47:00.475Z,81.18
2023-01-27T11:49:43.811Z,81.10
2023-01-27T11:52:21.452Z,82.14
2023-01-27T11:55:05.333Z,83.76
2023-01-27T11:57:44.699Z,83.21
2023-01-27T12:00:25.445Z,83.64
2023-01-27T12:03:06.900Z,84.18
2023-01-27T12:05:46.991Z,83.15
2023-01-27T12:08:40.009Z,82.15
2023-01-27T12:11:22.907Z,83.42
2023-01-27T12:13:59.710Z,83.75
2023-01-27T12:16:45.767Z,84.00
2023-01-27T12:19:26.626Z,84.56
2023-01-27T12:22:07.948Z,84.78
2023-01-27T12:24:49.509Z,84.22
2023-01-27T12:27:27.274Z,84.40
2023-01-27T12:30:05.492Z,85.04
2023-01-27T12:32:43.485Z,86.24
2023-01-27T12:35:24.530Z,86.96
2023-01-27T12:38:04.788Z,85.60
2023-01-27T12:40:43.771Z,86.00
2023-01-27T12:43:20.078Z,85.47
2023-01-27T12:46:22.987Z,85.62
2023-01-27T12:49:03.859Z,84.67
2023-01-27T12:51:41.931Z,85.93
2023-01-27T12:54:21.955Z,85.18
2023-01-27T12:57:02.777Z,85.17
2023-01-27T12:59:43.292Z,85.09
2023-01-27T13:02:21.039Z,82.78
2023-01-27T13:04:58.875Z,82.02
2023-01-27T13:07:38.573Z,80.85
2023-01-27T13:10:22.889Z,100.00
2023-01-27T13:13:02.005Z,83.20
2023-01-27T13:15:36.371Z,94.02
2023-01-27T13:18:21.882Z,85.07
2023-01-27T13:21:11.373Z,82.87
2023-01-27T13:23:49.167Z,82.40
2023-01-27T13:26:30.167Z,82.88
2023-01-27T13:29:14.526Z,82.16
2023-01-27T13:31:55.301Z,83.69
2023-01-27T13:34:39.874Z,82.81
2023-01-27T13:37:18.874Z,82.44
2023-01-27T13:40:00.986Z,83.87
2023-01-27T13:42:41.180Z,85.77
2023-01-27T13:45:19.070Z,84.67
2023-01-27T13:47:58.256Z,85.04
2023-01-27T13:50:37.443Z,85.94
2023-01-27T13:53:14.045Z,85.95
2023-01-27T13:56:07.245Z,86.66
2023-01-27T13:58:55.741Z,86.43
2023-01-27T14:01:43.236Z,87.34
2023-01-27T14:04:34.818Z,86.11
2023-01-27T14:07:22.114Z,87.85
2023-01-27T14:10:13.791Z,87.82
2023-01-27T14:12:58.136Z,88.45
2023-01-27T14:15:41.717Z,88.57
2023-01-27T14:18:20.420Z,88.33
2023-01-27T14:21:12.230Z,89.60
2023-01-27T14:24:02.652Z,89.17
2023-01-27T14:26:51.829Z,88.98
2023-01-27T14:29:34.943Z,100.00
2023-01-27T14:32:22.591Z,100.00
2023-01-27T14:35:19.900Z,96.73
2023-01-27T14:38:06.458Z,92.72
2023-01-27T14:40:50.580Z,91.59
2023-01-27T14:43:34.668Z,88.60
2023-01-27T14:46:19.057Z,89.41
2023-01-27T14:49:07.554Z,90.34
2023-01-27T14:51:46.566Z,100.00
2023-01-27T14:54:40.100Z,99.95
2023-01-27T14:57:26.372Z,98.01
2023-01-27T15:03:37.968Z,90.42
2023-01-27T15:06:18.648Z,90.42
2023-01-27T15:09:02.918Z,90.61
2023-01-27T15:12:13.214Z,90.83
2023-01-27T15:15:07.640Z,91.94
2023-01-27T15:18:00.351Z,91.70
2023-01-27T15:21:03.446Z,91.94
2023-01-27T15:24:06.464Z,91.80
2023-01-27T15:26:42.243Z,91.97
2023-01-27T15:29:20.082Z,91.28
2023-01-27T15:32:27.287Z,91.90
2023-01-27T15:35:34.726Z,91.07
2023-01-27T15:38:34.027Z,91.36
2023-01-27T15:41:16.030Z,90.44
2023-01-27T15:44:06.060Z,91.45
2023-01-27T15:46:45.775Z,92.16
2023-01-27T15:49:24.439Z,92.76
2023-01-27T15:52:12.013Z,91.48
2023-01-27T15:54:51.283Z,90.86
2023-01-27T15:57:30.051Z,91.77
2023-01-27T16:00:08.102Z,91.69
2023-01-27T16:02:48.101Z,90.57
2023-01-27T16:05:26.468Z,90.04
2023-01-27T16:08:03.536Z,90.06
2023-01-27T16:10:40.695Z,90.38
2023-01-27T16:13:26.280Z,89.36
2023-01-27T16:16:23.301Z,89.24
2023-01-27T16:19:05.056Z,89.67
2023-01-27T16:21:47.736Z,90.10
2023-01-27T16:24:29.254Z,90.18
2023-01-27T16:27:23.569Z,90.31
2023-01-27T16:30:00.722Z,90.58
2023-01-27T16:32:41.160Z,89.50
2023-01-27T16:35:19.315Z,90.79
2023-01-27T16:38:18.017Z,89.55
2023-01-27T16:40:57.293Z,88.99
2023-01-27T16:43:42.928Z,88.50
2023-01-27T16:46:28.509Z,89.21
2023-01-27T16:49:05.653Z,88.06
2023-01-27T16:51:40.306Z,88.47
2023-01-27T16:54:21.569Z,88.18
2023-01-27T16:56:56.321Z,87.86
2023-01-27T16:59:37.335Z,87.22
2023-01-27T17:02:19.995Z,86.79
2023-01-27T17:04:58.816Z,87.91
2023-01-27T17:07:34.783Z,88.50
2023-01-27T17:10:29.080Z,87.47
2023-01-27T17:13:27.622Z,87.69
2023-01-27T17:16:08.615Z,86.88
2023-01-27T17:18:52.363Z,88.84
2023-01-27T17:21:32.564Z,96.69
2023-01-27T17:24:17.273Z,100.00
2023-01-27T17:26:59.798Z,90.73
2023-01-27T17:29:36.842Z,87.32
2023-01-27T17:32:21.847Z,86.25
2023-01-27T17:34:58.727Z,86.23
2023-01-27T17:37:34.095Z,86.65
2023-01-27T17:40:15.977Z,86.72
2023-01-27T17:42:52.060Z,87.89
2023-01-27T17:45:30.023Z,88.15
2023-01-27T17:48:06.366Z,88.57
2023-01-27T17:50:41.369Z,89.78
2023-01-27T17:53:25.237Z,88.87
2023-01-27T17:55:59.716Z,88.72
2023-01-27T17:58:34.745Z,87.96
2023-01-27T18:01:10.117Z,88.89
2023-01-27T18:03:47.412Z,89.11
2023-01-27T18:06:24.410Z,88.23
2023-01-27T18:09:02.762Z,87.82
2023-01-27T18:11:39.357Z,88.00
2023-01-27T18:14:19.661Z,88.24
2023-01-27T18:17:01.821Z,96.26
2023-01-27T18:19:37.978Z,100.00
2023-01-27T18:22:15.179Z,100.00
2023-01-27T18:24:53.224Z,100.00
2023-01-27T18:27:30.446Z,82.02
2023-01-27T18:30:13.449Z,83.34
2023-01-27T18:32:52.509Z,82.60
2023-01-27T18:35:30.399Z,83.47
2023-01-27T18:38:20.754Z,84.53
2023-01-27T18:40:55.850Z,86.44
2023-01-27T18:43:30.474Z,85.56
2023-01-27T18:46:11.507Z,85.85
2023-01-27T18:48:46.876Z,86.12
2023-01-27T18:51:23.334Z,87.29
2023-01-27T18:53:57.815Z,86.71
2023-01-27T18:56:32.761Z,87.81
2023-01-27T18:59:09.229Z,87.08
2023-01-27T19:01:44.745Z,87.95
2023-01-27T19:04:19.113Z,87.84
2023-01-27T19:06:55.385Z,100.00
2023-01-27T19:09:29.784Z,100.00
2023-01-27T19:12:04.511Z,93.49
2023-01-27T19:14:39.114Z,89.61
2023-01-27T19:17:19.654Z,88.02
2023-01-27T19:19:55.944Z,87.65
2023-01-27T19:22:32.114Z,86.66
2023-01-27T19:25:07.740Z,87.37
2023-01-27T19:27:45.440Z,88.76
2023-01-27T19:30:32.688Z,87.46
2023-01-27T19:33:18.074Z,89.61
2023-01-27T19:35:55.685Z,87.85
2023-01-27T19:38:32.073Z,88.31
2023-01-27T19:41:09.786Z,88.13
2023-01-27T19:43:47.333Z,88.70
2023-01-27T19:46:23.817Z,88.31
2023-01-27T19:48:58.774Z,89.44
2023-01-27T19:51:34.390Z,89.30
2023-01-27T19:54:11.234Z,88.87
2023-01-27T19:56:46.224Z,88.58
2023-01-27T19:59:21.197Z,88.81
2023-01-27T20:01:57.675Z,89.55
2023-01-27T20:04:32.564Z,89.57
2023-01-27T20:07:11.408Z,89.66
2023-01-27T20:09:47.740Z,89.47
2023-01-27T20:12:22.058Z,89.21
2023-01-27T20:14:57.116Z,89.73
2023-01-27T20:17:31.655Z,88.56
2023-01-27T20:20:07.817Z,88.69
2023-01-27T20:22:42.835Z,88.02
2023-01-27T20:25:21.177Z,89.18
2023-01-27T20:27:57.520Z,88.84
2023-01-27T20:30:34.887Z,88.75
2023-01-27T20:33:09.500Z,89.11
2023-01-27T20:35:44.078Z,89.09
2023-01-27T20:38:18.587Z,88.82
2023-01-27T20:40:54.568Z,89.10
2023-01-27T20:43:35.314Z,89.69
2023-01-27T20:46:13.520Z,89.53
2023-01-27T20:48:48.617Z,89.56
2023-01-27T20:51:23.480Z,89.32
2023-01-27T20:54:00.231Z,89.81
2023-01-27T20:56:36.499Z,89.26
2023-01-27T20:59:12.254Z,89.26
2023-01-27T21:01:46.921Z,90.10
2023-01-27T21:04:21.436Z,89.30
2023-01-27T21:06:56.074Z,89.96
2023-01-27T21:09:32.082Z,90.24
2023-01-27T21:12:08.272Z,89.54
2023-01-27T21:14:42.845Z,89.65
2023-01-27T21:17:17.515Z,90.10
2023-01-27T21:19:52.034Z,90.06
2023-01-27T21:22:27.190Z,90.43
2023-01-27T21:25:01.510Z,90.41
2023-01-27T21:27:37.714Z,90.65
2023-01-27T21:30:13.887Z,90.53
2023-01-27T21:32:49.247Z,90.63
2023-01-27T21:35:23.556Z,90.21
2023-01-27T21:38:00.140Z,90.03
2023-01-27T21:40:35.444Z,90.25
2023-01-27T21:43:29.909Z,90.66
2023-01-27T21:46:04.292Z,90.28
2023-01-27T21:48:39.060Z,90.33
2023-01-27T21:51:14.273Z,89.46
2023-01-27T21:53:49.011Z,89.64
2023-01-27T21:56:23.891Z,89.39
2023-01-27T21:59:01.213Z,89.65
2023-01-27T22:01:36.063Z,89.35
2023-01-27T22:04:11.237Z,90.29
2023-01-27T22:06:45.511Z,89.80
2023-01-27T22:09:20.044Z,90.37
2023-01-27T22:11:54.425Z,89.82
2023-01-27T22:14:31.278Z,89.43
2023-01-27T22:17:05.913Z,89.58
2023-01-27T22:19:40.621Z,89.68
2023-01-27T22:22:15.179Z,89.81
2023-01-27T22:24:49.713Z,89.57
2023-01-27T22:27:24.041Z,89.08
2023-01-27T22:30:00.170Z,89.39
2023-01-27T22:32:34.564Z,88.86
2023-01-27T22:35:09.936Z,88.68
2023-01-27T22:37:44.448Z,88.59
2023-01-27T22:40:19.270Z,88.60
2023-01-27T22:42:54.481Z,88.29
2023-01-27T22:45:30.380Z,88.65
2023-01-27T22:48:04.889Z,88.79
2023-01-27T22:50:40.675Z,88.94
2023-01-27T22:53:15.079Z,88.75
2023-01-27T22:55:58.031Z,89.37
2023-01-27T22:58:32.561Z,88.40
2023-01-27T23:02:57.727Z,87.82
2023-01-27T23:05:32.685Z,87.82
2023-01-27T23:08:06.948Z,88.97
2023-01-27T23:10:41.648Z,88.36
2023-01-27T23:13:16.294Z,88.96
2023-01-27T23:15:50.861Z,88.47
2023-01-27T23:18:26.798Z,87.85
2023-01-27T23:21:04.485Z,89.03
2023-01-27T23:23:38.819Z,88.35
2023-01-27T23:26:14.695Z,88.49
2023-01-27T23:28:49.026Z,88.93
2023-01-27T23:31:23.686Z,88.26
2023-01-27T23:33:59.579Z,88.26
2023-01-27T23:36:34.126Z,88.14
2023-01-27T23:39:08.412Z,89.00
2023-01-27T23:41:42.999Z,88.61
2023-01-27T23:44:17.424Z,88.29
2023-01-27T23:46:51.970Z,87.99
2023-01-27T23:49:27.925Z,88.20
2023-01-27T23:52:02.408Z,88.46
2023-01-27T23:54:37.070Z,88.80
2023-01-27T23:57:11.682Z,100.00
2023-01-27T23:59:45.983Z,100.00
